Time;durP1;ratioP1;P1;durP2;ratioP2;P2;SDS_P1;SDS_P2;PMS_P1;PMS_P2;Temp;Humidity;BMP_temperature;BMP_pressure;BME280_temperature;BME280_humidity;BME280_pressure;Samples;Min_cycle;Max_cycle;Signal;HPM_P1;HPM_P2
2021/12/11 00:01:49;;;;;;;14.80;13.30;;;5.20;91.40;;;;;;5051822;28;20068;-60
2021/12/11 00:04:19;;;;;;;16.63;13.97;;;5.30;91.70;;;;;;5044021;28;20030;-60
2021/12/11 00:06:52;;;;;;;14.30;11.73;;;5.30;91.60;;;;;;5053044;28;20504;-60
2021/12/11 00:09:22;;;;;;;15.10;12.57;;;5.20;90.10;;;;;;5046798;28;20029;-60
2021/12/11 00:11:55;;;;;;;15.43;12.13;;;5.20;91.30;;;;;;5051962;28;20040;-60
2021/12/11 00:14:22;;;;;;;16.07;12.10;;;5.20;91.30;;;;;;5054702;28;20021;-60
2021/12/11 00:16:50;;;;;;;15.03;12.50;;;5.30;91.60;;;;;;5054597;28;20163;-60
2021/12/11 00:19:31;;;;;;;15.00;12.17;;;5.20;91.00;;;;;;5053606;28;20025;-60
2021/12/11 00:22:09;;;;;;;14.37;11.90;;;5.30;91.50;;;;;;5061645;28;20053;-60
2021/12/11 00:24:36;;;;;;;14.53;11.97;;;5.10;90.80;;;;;;5053167;28;20405;-60
2021/12/11 00:27:08;;;;;;;14.17;12.17;;;5.10;91.20;;;;;;5053443;28;20078;-60
2021/12/11 00:29:35;;;;;;;17.77;12.90;;;5.20;91.50;;;;;;5053454;28;20044;-60
2021/12/11 00:32:11;;;;;;;13.40;11.97;;;5.20;91.60;;;;;;5054045;28;20033;-60
2021/12/11 00:34:40;;;;;;;14.07;12.43;;;5.20;91.40;;;;;;5053955;28;20033;-60
2021/12/11 00:37:08;;;;;;;18.20;12.90;;;5.20;91.50;;;;;;5055320;28;20025;-60
2021/12/11 00:39:42;;;;;;;15.83;13.27;;;5.20;91.00;;;;;;5054066;28;20441;-60
2021/12/11 00:42:12;;;;;;;17.02;12.38;;;5.00;91.30;;;;;;5050120;28;20040;-60
2021/12/11 00:44:48;;;;;;;16.33;12.83;;;5.10;91.00;;;;;;5045569;28;20039;-60
2021/12/11 00:47:18;;;;;;;18.77;13.50;;;5.00;91.60;;;;;;5054991;28;20036;-60
2021/12/11 00:49:51;;;;;;;15.70;12.67;;;5.00;91.30;;;;;;5042574;28;20037;-60
2021/12/11 00:52:17;;;;;;;17.63;13.33;;;5.10;91.90;;;;;;5045859;28;20105;-60
2021/12/11 00:54:45;;;;;;;16.20;12.43;;;5.10;91.80;;;;;;5034946;28;20037;-60
2021/12/11 00:57:12;;;;;;;18.87;13.23;;;;;;;;;;5034626;28;20026;-60
2021/12/11 00:59:38;;;;;;;14.60;12.40;;;4.80;87.80;;;;;;5044302;28;20044;-60
2021/12/11 01:02:05;;;;;;;14.53;12.53;;;4.80;93.40;;;;;;5052767;28;20060;-60
2021/12/11 01:04:41;;;;;;;16.00;12.47;;;4.90;92.30;;;;;;5053308;28;20036;-60
2021/12/11 01:14:22;;;;;;;15.90;12.43;;;4.80;93.20;;;;;;5050413;28;20048;-60
2021/12/11 01:16:56;;;;;;;16.40;12.47;;;4.80;91.60;;;;;;5046094;28;20483;-60
2021/12/11 01:19:23;;;;;;;16.43;12.03;;;4.70;91.60;;;;;;5049660;28;20029;-60
2021/12/11 01:21:59;;;;;;;16.70;13.00;;;4.70;92.30;;;;;;5038456;28;20091;-60
2021/12/11 01:24:41;;;;;;;16.67;12.97;;;4.70;91.80;;;;;;5053393;28;20238;-60
2021/12/11 01:27:08;;;;;;;14.87;12.23;;;4.90;92.10;;;;;;5052600;28;20196;-60
2021/12/11 01:29:34;;;;;;;16.17;12.83;;;4.80;91.40;;;;;;5052312;28;20048;-60
2021/12/11 01:32:02;;;;;;;16.93;12.00;;;4.70;90.90;;;;;;5042064;28;20491;-60
2021/12/11 01:34:29;;;;;;;16.37;12.83;;;4.70;91.30;;;;;;5046144;28;20044;-60
2021/12/11 01:36:56;;;;;;;14.63;12.00;;;4.70;90.80;;;;;;5033986;28;20026;-60
2021/12/11 01:39:30;;;;;;;13.90;11.87;;;4.70;90.70;;;;;;5054013;28;20091;-60
2021/12/11 01:41:56;;;;;;;13.70;12.30;;;4.70;90.40;;;;;;5045666;28;20035;-60
2021/12/11 01:44:29;;;;;;;14.83;12.57;;;4.60;91.50;;;;;;5063510;28;20490;-60
2021/12/11 01:47:18;;;;;;;16.07;12.20;;;4.70;92.80;;;;;;5062859;28;20044;-60
2021/12/11 01:49:48;;;;;;;16.07;13.10;;;4.80;93.90;;;;;;5060283;28;20028;-60
2021/12/11 01:52:18;;;;;;;13.97;11.07;;;4.60;91.20;;;;;;5054685;28;20025;-60
2021/12/11 01:54:46;;;;;;;14.90;12.27;;;4.70;91.70;;;;;;5057295;28;20028;-60
2021/12/11 01:57:23;;;;;;;15.40;12.63;;;4.70;91.30;;;;;;5071492;28;20417;-60
2021/12/11 02:00:07;;;;;;;16.73;12.43;;;4.70;91.10;;;;;;5071362;28;20140;-60
2021/12/11 02:02:37;;;;;;;16.47;12.03;;;4.80;91.00;;;;;;5057924;28;20494;-60
2021/12/11 02:05:04;;;;;;;16.87;12.83;;;4.80;91.20;;;;;;5053529;28;20013;-60
2021/12/11 02:11:18;;;;;;;13.97;11.00;;;4.70;91.10;;;;;;5047475;28;20052;-60
2021/12/11 02:13:54;;;;;;;16.93;12.07;;;4.60;90.90;;;;;;5041942;28;20025;-60
2021/12/11 02:16:44;;;;;;;14.47;11.63;;;4.60;91.60;;;;;;5052244;28;20064;-60
2021/12/11 02:19:15;;;;;;;14.27;11.87;;;4.60;90.90;;;;;;5052263;28;20491;-60
2021/12/11 02:22:01;;;;;;;16.83;12.77;;;4.60;91.50;;;;;;5053162;28;20049;-60
2021/12/11 02:24:49;;;;;;;16.20;12.57;;;4.70;91.20;;;;;;5048347;28;20025;-60
2021/12/11 02:27:22;;;;;;;14.27;12.27;;;4.70;91.10;;;;;;5053229;28;20021;-60
2021/12/11 02:29:57;;;;;;;17.83;13.20;;;4.60;91.20;;;;;;5042589;28;20113;-60
2021/12/11 02:32:34;;;;;;;15.68;12.98;;;4.60;91.20;;;;;;5053811;28;20025;-60
2021/12/11 02:35:23;;;;;;;17.97;12.80;;;4.60;91.20;;;;;;5051116;28;20029;-60
2021/12/11 02:38:04;;;;;;;15.43;12.43;;;4.40;91.30;;;;;;5063559;28;20017;-60
2021/12/11 02:40:40;;;;;;;16.03;12.63;;;4.50;89.50;;;;;;5054202;28;20033;-60
2021/12/11 02:43:10;;;;;;;15.37;11.27;;;4.50;88.90;;;;;;5033057;28;20123;-60
2021/12/11 02:45:47;;;;;;;16.30;11.93;;;4.40;88.50;;;;;;5047248;28;20029;-60
2021/12/11 02:48:22;;;;;;;15.57;12.73;;;4.40;88.40;;;;;;5053176;28;20044;-60
2021/12/11 02:51:04;;;;;;;14.57;12.63;;;4.30;82.40;;;;;;5034649;28;20029;-60
2021/12/11 02:53:38;;;;;;;15.73;12.40;;;4.30;79.20;;;;;;5041010;28;20037;-60
2021/12/11 02:56:14;;;;;;;16.20;12.20;;;4.30;79.20;;;;;;5037484;28;20087;-60
2021/12/11 02:58:45;;;;;;;15.10;12.77;;;4.30;81.40;;;;;;5046189;28;20283;-60
2021/12/11 03:01:40;;;;;;;14.33;12.47;;;4.30;81.70;;;;;;5041150;28;20025;-60
2021/12/11 03:04:23;;;;;;;17.07;12.83;;;4.10;82.50;;;;;;5033956;28;20562;-60
2021/12/11 03:06:51;;;;;;;14.77;12.80;;;4.10;90.40;;;;;;5039535;28;20760;-60
2021/12/11 03:09:21;;;;;;;13.63;11.73;;;4.00;90.50;;;;;;5043751;28;20061;-60
2021/12/11 03:11:47;;;;;;;15.07;13.37;;;4.20;90.50;;;;;;5034156;28;20058;-60
2021/12/11 03:14:16;;;;;;;14.63;12.30;;;4.00;90.50;;;;;;5032970;28;20079;-60
2021/12/11 03:16:44;;;;;;;17.07;13.93;;;4.00;90.40;;;;;;5036538;28;20021;-60
2021/12/11 03:19:12;;;;;;;16.33;14.27;;;;;;;;;;5043198;28;20062;-60
2021/12/11 03:21:39;;;;;;;15.60;12.43;;;3.80;91.60;;;;;;5044449;28;20094;-60
2021/12/11 03:24:06;;;;;;;14.90;12.10;;;3.90;92.20;;;;;;5051361;28;20036;-60
2021/12/11 03:36:22;;;;;;;16.10;12.33;;;3.90;94.30;;;;;;5055645;28;20445;-60
2021/12/11 03:38:55;;;;;;;13.37;11.97;;;3.90;94.60;;;;;;5052156;28;20109;-60
2021/12/11 03:41:21;;;;;;;16.33;12.57;;;4.00;94.20;;;;;;5049598;28;20026;-60
2021/12/11 03:43:48;;;;;;;17.20;13.73;;;4.00;94.60;;;;;;5049408;28;20499;-60
2021/12/11 03:46:15;;;;;;;16.77;13.03;;;4.00;94.70;;;;;;5048707;28;20036;-60
2021/12/11 03:48:44;;;;;;;15.43;12.00;;;4.00;95.60;;;;;;5052832;28;20041;-60
2021/12/11 03:51:12;;;;;;;14.80;12.03;;;3.90;97.10;;;;;;5041936;28;20523;-60
2021/12/11 03:53:39;;;;;;;13.53;11.10;;;4.00;95.30;;;;;;5050021;28;20486;-60
2021/12/11 03:56:08;;;;;;;14.23;10.80;;;3.90;95.30;;;;;;5064949;28;20098;-60
2021/12/11 03:59:10;;;;;;;16.17;10.20;;;4.00;95.50;;;;;;5055492;28;20487;-60
2021/12/11 04:01:43;;;;;;;15.70;10.47;;;3.90;95.10;;;;;;5046342;28;20549;-60
2021/12/11 04:04:26;;;;;;;16.10;11.03;;;4.00;95.20;;;;;;5035670;28;20108;-60
2021/12/11 04:06:53;;;;;;;14.07;10.83;;;4.10;95.60;;;;;;5044467;28;20021;-60
2021/12/11 04:09:21;;;;;;;14.87;11.53;;;3.90;94.00;;;;;;5056185;28;20032;-60
2021/12/11 04:11:49;;;;;;;14.40;11.53;;;4.00;93.60;;;;;;5044262;28;20036;-60
2021/12/11 04:14:18;;;;;;;13.80;11.23;;;3.80;93.90;;;;;;5053511;28;20035;-60
2021/12/11 04:16:45;;;;;;;14.67;11.63;;;3.90;94.20;;;;;;5054388;28;20061;-61
2021/12/11 04:19:12;;;;;;;12.93;10.37;;;3.90;94.20;;;;;;5035576;28;20021;-60
2021/12/11 04:21:38;;;;;;;12.50;9.33;;;4.10;94.20;;;;;;5036517;28;20045;-61
2021/12/11 04:24:06;;;;;;;14.47;11.03;;;4.00;93.80;;;;;;5046167;28;20029;-61
2021/12/11 04:26:32;;;;;;;10.47;8.87;;;3.90;94.20;;;;;;5052963;28;20033;-60
2021/12/11 04:28:58;;;;;;;12.40;9.70;;;3.80;93.70;;;;;;5053085;28;20664;-60
2021/12/11 04:31:29;;;;;;;12.40;9.73;;;3.80;94.70;;;;;;5048712;28;20116;-60
2021/12/11 04:33:57;;;;;;;14.27;9.73;;;;;;;;;;5037016;28;20112;-60
2021/12/11 04:49:57;;;;;;;13.07;9.70;;;3.80;94.20;;;;;;5043657;28;20031;-60
2021/12/11 04:52:45;;;;;;;12.60;10.07;;;3.60;94.90;;;;;;5054585;28;20029;-60
2021/12/11 05:04:01;;;;;;;14.30;11.17;;;;;;;;;;5012340;28;20090;-60
2021/12/11 05:11:16;;;;;;;17.60;12.38;;;3.10;85.00;;;;;;5046744;28;20120;-60
2021/12/11 05:13:43;;;;;;;17.37;12.90;;;3.10;84.90;;;;;;5053247;28;20025;-61
2021/12/11 05:16:12;;;;;;;17.00;13.10;;;3.00;83.60;;;;;;5050027;28;20112;-61
2021/12/11 05:18:41;;;;;;;18.60;13.20;;;2.90;84.10;;;;;;5050584;28;20037;-61
2021/12/11 05:21:15;;;;;;;17.43;13.77;;;2.90;84.00;;;;;;5043014;28;20049;-61
2021/12/11 05:23:41;;;;;;;15.00;12.60;;;2.90;84.00;;;;;;5063705;28;20040;-61
2021/12/11 05:26:06;;;;;;;17.97;13.40;;;3.00;84.40;;;;;;5052934;28;20498;-60
2021/12/11 05:28:33;;;;;;;17.03;12.87;;;3.10;84.20;;;;;;5053171;28;20035;-61
2021/12/11 05:31:02;;;;;;;17.10;13.40;;;2.90;83.60;;;;;;5052935;28;20025;-61
2021/12/11 05:33:27;;;;;;;16.40;12.33;;;2.60;82.00;;;;;;5036939;28;20033;-60
2021/12/11 05:35:54;;;;;;;15.83;12.60;;;2.80;83.90;;;;;;5046842;28;20036;-61
2021/12/11 05:38:21;;;;;;;16.23;12.80;;;2.80;84.20;;;;;;5054105;28;20025;-60
2021/12/11 05:40:51;;;;;;;19.00;13.97;;;2.90;83.80;;;;;;5044185;28;20446;-61
2021/12/11 05:43:18;;;;;;;16.73;12.87;;;2.80;84.20;;;;;;5045723;28;20386;-61
2021/12/11 05:45:44;;;;;;;16.53;13.80;;;2.70;84.30;;;;;;5052385;28;20036;-60
2021/12/11 05:48:11;;;;;;;20.43;14.27;;;2.70;83.90;;;;;;5053607;28;20029;-60
2021/12/11 05:50:44;;;;;;;18.57;13.23;;;2.80;84.40;;;;;;5051634;28;20033;-60
2021/12/11 05:53:21;;;;;;;17.30;12.70;;;2.80;83.60;;;;;;5053681;28;20064;-59
2021/12/11 05:55:49;;;;;;;15.30;12.53;;;2.80;83.80;;;;;;5054731;28;20466;-60
2021/12/11 05:58:24;;;;;;;15.43;12.53;;;2.70;85.50;;;;;;5073349;28;20109;-60
2021/12/11 06:00:54;;;;;;;17.90;13.50;;;2.60;83.30;;;;;;5061385;28;20032;-60
2021/12/11 06:03:20;;;;;;;17.63;12.60;;;2.60;80.50;;;;;;5066492;28;20079;-60
2021/12/11 06:05:46;;;;;;;20.27;13.87;;;2.40;74.00;;;;;;5059287;28;20079;-60
2021/12/11 06:08:12;;;;;;;15.53;12.63;;;2.40;73.60;;;;;;5052174;28;20021;-60
2021/12/11 06:10:40;;;;;;;18.67;14.37;;;2.50;73.50;;;;;;5050352;28;20052;-60
2021/12/11 06:13:07;;;;;;;16.67;13.43;;;2.50;73.40;;;;;;5061586;28;20078;-60
2021/12/11 06:15:52;;;;;;;17.67;13.73;;;2.50;71.50;;;;;;5040730;28;20021;-60
2021/12/11 06:18:19;;;;;;;;;;;2.50;73.10;;;;;;5035253;28;20026;-60
2021/12/11 06:20:47;;;;;;;15.10;12.23;;;2.30;71.40;;;;;;5038410;28;19912;-59
2021/12/11 06:23:16;;;;;;;17.63;13.90;;;2.40;72.50;;;;;;5072870;28;20436;-60
2021/12/11 06:25:43;;;;;;;20.00;13.07;;;2.20;70.40;;;;;;5059799;28;20013;-60
2021/12/11 06:28:10;;;;;;;19.73;12.93;;;2.40;81.60;;;;;;5053174;28;20072;-60
2021/12/11 06:30:37;;;;;;;15.67;13.20;;;;;;;;;;5051465;28;20425;-60
2021/12/11 06:33:06;;;;;;;19.33;13.93;;;2.40;78.40;;;;;;5068053;28;20068;-60
2021/12/11 06:39:18;;;;;;;18.03;13.50;;;2.40;79.10;;;;;;5033610;28;20107;-60
2021/12/11 06:41:46;;;;;;;17.57;13.03;;;2.50;80.60;;;;;;5046841;28;20025;-61
2021/12/11 06:44:12;;;;;;;17.67;13.60;;;2.30;91.80;;;;;;5053453;28;20040;-60
2021/12/11 06:46:39;;;;;;;17.27;13.00;;;2.20;92.40;;;;;;5051712;28;20032;-60
2021/12/11 06:49:31;;;;;;;18.17;13.20;;;2.20;91.00;;;;;;5048802;28;20053;-60
2021/12/11 06:51:58;;;;;;;18.83;14.10;;;2.30;91.00;;;;;;5048136;28;20013;-60
2021/12/11 06:57:47;;;;;;;20.47;14.90;;;2.10;83.00;;;;;;5040430;28;20035;-59
2021/12/11 07:00:15;;;;;;;19.37;14.70;;;2.20;78.80;;;;;;5045050;28;20021;-60
2021/12/11 07:02:41;;;;;;;17.80;13.40;;;2.10;78.70;;;;;;5052166;28;20052;-60
2021/12/11 07:05:07;;;;;;;20.40;13.57;;;2.20;78.30;;;;;;5040846;28;20030;-61
2021/12/11 07:07:35;;;;;;;19.43;13.37;;;2.20;77.50;;;;;;5039431;28;20371;-60
2021/12/11 07:10:04;;;;;;;18.57;14.70;;;2.20;76.80;;;;;;5050460;28;20035;-60
2021/12/11 07:12:30;;;;;;;16.60;13.57;;;2.10;77.20;;;;;;5055686;28;20083;-60
2021/12/11 07:14:56;;;;;;;18.50;14.53;;;2.20;78.90;;;;;;5063136;28;20033;-61
2021/12/11 07:17:22;;;;;;;20.63;14.47;;;2.30;78.20;;;;;;5051024;28;20026;-61
2021/12/11 07:19:48;;;;;;;22.17;13.87;;;2.20;78.10;;;;;;5043843;28;20243;-60
2021/12/11 07:22:15;;;;;;;19.10;14.60;;;2.20;78.60;;;;;;5044425;28;20119;-61
2021/12/11 07:24:51;;;;;;;17.23;13.70;;;2.20;78.70;;;;;;5051680;28;20389;-60
2021/12/11 07:27:18;;;;;;;21.83;15.57;;;2.20;76.90;;;;;;5054853;28;20112;-60
2021/12/11 07:29:45;;;;;;;18.67;14.17;;;2.10;78.70;;;;;;5055931;28;20037;-61
2021/12/11 07:32:11;;;;;;;23.43;15.10;;;2.20;78.30;;;;;;5056112;28;20043;-60
2021/12/11 07:34:38;;;;;;;22.10;14.90;;;2.20;77.50;;;;;;5054575;28;20467;-60
2021/12/11 07:37:05;;;;;;;20.90;14.83;;;2.30;77.30;;;;;;5056073;28;20035;-61
2021/12/11 07:39:31;;;;;;;20.27;15.10;;;2.20;77.20;;;;;;5048127;28;20036;-59
2021/12/11 07:41:57;;;;;;;18.37;15.40;;;2.30;76.70;;;;;;5048576;28;20083;-59
2021/12/11 07:44:25;;;;;;;21.43;15.60;;;2.30;78.40;;;;;;5053169;28;20123;-59
2021/12/11 07:46:52;;;;;;;21.13;17.13;;;2.30;77.30;;;;;;5041012;28;20439;-59
2021/12/11 07:49:18;;;;;;;23.03;15.27;;;2.20;77.40;;;;;;5039138;28;20037;-59
2021/12/11 07:51:44;;;;;;;21.97;15.67;;;2.20;77.20;;;;;;5064453;28;20067;-59
2021/12/11 07:54:09;;;;;;;24.50;14.80;;;2.30;78.20;;;;;;5056851;28;20451;-59
2021/12/11 07:56:36;;;;;;;19.90;15.63;;;2.30;77.90;;;;;;5058518;28;20075;-59
2021/12/11 07:59:05;;;;;;;22.03;15.80;;;2.30;77.40;;;;;;5063838;28;20025;-59
2021/12/11 08:01:33;;;;;;;28.30;16.90;;;2.40;76.30;;;;;;5050183;28;20032;-60
2021/12/11 08:04:00;;;;;;;22.23;15.27;;;2.40;77.20;;;;;;5049382;28;20072;-59
2021/12/11 08:06:29;;;;;;;21.07;15.90;;;2.40;77.50;;;;;;5047807;28;20381;-59
2021/12/11 08:11:59;;;;;;;21.80;14.57;;;2.40;77.40;;;;;;5048485;28;20087;-60
2021/12/11 08:17:54;;;;;;;24.50;15.47;;;2.40;76.30;;;;;;5045778;28;20506;-60
2021/12/11 08:20:22;;;;;;;18.33;14.60;;;2.30;76.30;;;;;;5048076;28;20490;-60
2021/12/11 08:22:50;;;;;;;22.97;15.27;;;2.50;76.60;;;;;;5046983;28;20044;-60
2021/12/11 08:25:18;;;;;;;23.63;15.60;;;2.30;75.30;;;;;;5059259;28;20025;-59
2021/12/11 08:27:44;;;;;;;18.17;14.33;;;2.30;74.80;;;;;;5049709;28;20025;-60
2021/12/11 08:30:11;;;;;;;19.20;14.67;;;2.30;75.00;;;;;;5045840;28;20032;-60
2021/12/11 08:32:37;;;;;;;20.50;15.33;;;2.40;77.20;;;;;;5049205;28;20031;-60
2021/12/11 08:35:07;;;;;;;20.80;16.20;;;2.40;75.50;;;;;;5049322;28;20025;-60
2021/12/11 08:37:33;;;;;;;21.13;14.37;;;2.40;75.90;;;;;;5062646;28;20029;-59
2021/12/11 08:39:59;;;;;;;20.50;15.63;;;2.40;75.10;;;;;;5046584;28;20032;-59
2021/12/11 08:42:27;;;;;;;21.70;15.47;;;2.50;76.80;;;;;;5043784;28;20028;-59
2021/12/11 08:45:04;;;;;;;22.50;15.70;;;2.60;76.60;;;;;;5045353;28;20056;-58
2021/12/11 08:47:29;;;;;;;21.83;15.07;;;2.60;76.60;;;;;;5045517;28;20036;-59
2021/12/11 08:49:56;;;;;;;18.93;14.33;;;2.80;76.80;;;;;;5046910;28;20033;-59
2021/12/11 08:52:35;;;;;;;21.20;14.73;;;2.60;73.90;;;;;;5047891;28;20097;-60
2021/12/11 08:55:04;;;;;;;20.40;15.07;;;2.70;74.10;;;;;;5045483;28;20056;-59
2021/12/11 08:57:33;;;;;;;20.03;15.00;;;2.60;76.40;;;;;;5049781;28;20028;-60
2021/12/11 09:00:46;;;;;;;18.53;15.03;;;2.70;75.80;;;;;;5044610;28;20108;-59
2021/12/11 09:03:31;;;;;;;18.97;14.97;;;3.00;76.10;;;;;;4972633;28;20528;-59
2021/12/11 09:06:15;;;;;;;22.67;16.17;;;2.90;76.20;;;;;;5047330;28;20550;-59
2021/12/11 09:08:57;;;;;;;22.20;16.30;;;3.00;76.20;;;;;;5049807;28;20052;-60
2021/12/11 09:11:35;;;;;;;21.17;15.17;;;2.90;76.00;;;;;;5045698;28;20022;-60
2021/12/11 09:14:22;;;;;;;19.30;15.13;;;3.10;75.50;;;;;;5047952;28;20112;-59
2021/12/11 09:16:50;;;;;;;19.90;15.17;;;3.10;74.50;;;;;;5046228;28;20033;-60
2021/12/11 09:19:21;;;;;;;21.33;15.83;;;3.20;75.30;;;;;;5051982;28;20061;-60
2021/12/11 09:22:06;;;;;;;19.37;14.43;;;3.30;75.40;;;;;;5049923;28;20047;-60
2021/12/11 09:24:35;;;;;;;;;;;3.20;73.90;;;;;;5045363;28;20033;-60
2021/12/11 09:27:07;;;;;;;17.67;14.20;;;3.10;73.40;;;;;;5047774;28;20393;-59
2021/12/11 09:29:40;;;;;;;22.03;15.23;;;3.20;73.70;;;;;;5050498;28;20029;-60
2021/12/11 09:32:52;;;;;;;20.20;15.03;;;3.30;72.20;;;;;;5046980;28;20083;-60
2021/12/11 09:35:27;;;;;;;19.70;14.53;;;3.10;74.50;;;;;;5046602;28;20048;-60
2021/12/11 09:37:56;;;;;;;;;;;3.30;74.90;;;;;;5045998;28;20043;-60
2021/12/11 09:40:30;;;;;;;19.83;15.00;;;3.30;73.70;;;;;;5056855;28;19931;-60
2021/12/11 09:42:55;;;;;;;21.43;16.43;;;3.40;74.70;;;;;;5052251;28;20041;-60
2021/12/11 09:45:24;;;;;;;25.03;17.17;;;3.50;74.20;;;;;;5037326;28;20348;-60
2021/12/11 09:48:02;;;;;;;23.00;15.67;;;3.40;71.60;;;;;;5044214;28;20059;-59
2021/12/11 09:50:35;;;;;;;20.13;15.30;;;3.50;73.10;;;;;;5053248;28;20124;-60
2021/12/11 09:53:01;;;;;;;23.80;17.13;;;3.30;70.90;;;;;;5051824;28;20032;-60
2021/12/11 09:55:36;;;;;;;19.43;15.17;;;3.50;73.90;;;;;;5053297;28;20475;-60
2021/12/11 09:58:06;;;;;;;21.80;17.13;;;3.50;73.30;;;;;;5052732;28;20438;-60
2021/12/11 10:00:59;;;;;;;23.00;16.27;;;3.60;73.30;;;;;;5051077;28;20043;-60
2021/12/11 10:03:29;;;;;;;21.03;16.00;;;3.70;72.70;;;;;;5044188;28;20036;-60
2021/12/11 10:06:26;;;;;;;22.87;17.37;;;3.70;72.70;;;;;;5032195;28;20025;-60
2021/12/11 10:09:08;;;;;;;21.10;17.00;;;3.80;77.10;;;;;;5043725;28;20029;-60
2021/12/11 10:11:35;;;;;;;21.23;16.63;;;4.00;90.40;;;;;;5035258;28;20151;-60
2021/12/11 10:14:11;;;;;;;22.10;16.17;;;3.90;88.10;;;;;;5052814;28;20187;-60
2021/12/11 10:16:47;;;;;;;20.80;14.97;;;3.90;78.10;;;;;;5053302;28;20387;-60
2021/12/11 10:19:16;;;;;;;21.90;16.17;;;4.00;81.10;;;;;;5053158;28;20056;-59
2021/12/11 10:21:45;;;;;;;19.03;14.47;;;;;;;;;;5037660;28;20502;-60
2021/12/11 10:24:27;;;;;;;18.20;15.17;;;4.00;84.00;;;;;;5033562;28;20116;-60
2021/12/11 10:26:54;;;;;;;21.77;15.90;;;4.10;76.40;;;;;;5050384;28;20551;-59
2021/12/11 10:29:20;;;;;;;19.90;15.03;;;4.10;75.50;;;;;;5033359;28;20048;-60
2021/12/11 10:31:53;;;;;;;18.67;15.03;;;4.10;76.30;;;;;;5050385;28;20040;-60
2021/12/11 10:34:21;;;;;;;20.60;15.57;;;4.20;80.80;;;;;;5033249;28;20026;-60
2021/12/11 10:37:01;;;;;;;23.50;15.33;;;4.20;87.40;;;;;;5033148;28;20518;-60
2021/12/11 10:39:41;;;;;;;20.13;15.93;;;4.30;87.50;;;;;;5031823;28;20475;-60
2021/12/11 10:42:07;;;;;;;20.97;16.33;;;4.40;88.00;;;;;;5063504;28;20048;-60
2021/12/11 10:44:36;;;;;;;16.93;13.70;;;4.40;83.00;;;;;;5037208;28;20505;-60
2021/12/11 10:47:04;;;;;;;19.70;15.83;;;4.60;72.00;;;;;;5031544;28;20057;-60
2021/12/11 10:49:32;;;;;;;20.80;15.47;;;4.60;75.20;;;;;;5051841;28;20178;-60
2021/12/11 10:52:13;;;;;;;19.70;15.33;;;4.60;79.90;;;;;;5052509;28;20044;-60
2021/12/11 10:54:39;;;;;;;20.33;15.73;;;4.70;81.00;;;;;;5033050;28;20103;-60
2021/12/11 10:57:04;;;;;;;21.03;16.17;;;4.70;81.40;;;;;;5032742;28;20049;-60
2021/12/11 10:59:37;;;;;;;21.90;15.37;;;4.70;80.60;;;;;;5059668;28;20028;-60
2021/12/11 11:02:26;;;;;;;21.57;14.40;;;4.80;81.20;;;;;;5040552;28;20372;-60
2021/12/11 11:04:53;;;;;;;21.17;15.23;;;;;;;;;;5033156;28;20033;-60
2021/12/11 11:07:22;;;;;;;19.13;16.40;;;4.70;67.70;;;;;;5045374;28;20021;-60
2021/12/11 11:09:49;;;;;;;22.93;16.77;;;5.00;82.70;;;;;;5049961;28;20025;-61
2021/12/11 11:12:25;;;;;;;20.37;14.27;;;;;;;;;;5050803;28;20552;-60
2021/12/11 11:14:53;;;;;;;18.87;13.93;;;5.00;86.10;;;;;;5049958;28;20021;-60
2021/12/11 11:17:21;;;;;;;19.30;15.20;;;5.10;88.20;;;;;;5051139;28;20060;-60
2021/12/11 11:19:49;;;;;;;16.93;13.87;;;5.10;78.30;;;;;;5050889;28;20103;-60
2021/12/11 11:22:19;;;;;;;17.80;14.33;;;5.20;81.50;;;;;;5066230;28;20139;-60
2021/12/11 11:24:51;;;;;;;18.93;14.00;;;5.20;80.30;;;;;;5052511;28;20033;-60
2021/12/11 11:27:17;;;;;;;17.67;13.93;;;5.30;86.50;;;;;;5051428;28;20028;-60
2021/12/11 11:29:44;;;;;;;16.83;13.07;;;;;;;;;;5051924;28;20145;-61
2021/12/11 11:32:14;;;;;;;17.47;12.87;;;5.30;76.40;;;;;;5050264;28;20087;-60
2021/12/11 11:34:41;;;;;;;17.30;12.70;;;5.40;82.60;;;;;;5037672;28;20029;-60
2021/12/11 11:37:15;;;;;;;16.23;13.60;;;5.40;82.10;;;;;;5052037;28;20036;-60
2021/12/11 11:39:40;;;;;;;18.73;13.30;;;5.60;87.10;;;;;;5061194;28;20448;-60
2021/12/11 11:42:12;;;;;;;17.70;13.70;;;5.60;87.50;;;;;;5050084;28;20028;-60
2021/12/11 11:44:42;;;;;;;22.33;15.93;;;;;;;;;;5048422;28;20510;-60
2021/12/11 11:47:08;;;;;;;20.47;14.30;;;5.60;85.20;;;;;;5034012;28;20313;-60
2021/12/11 11:49:36;;;;;;;20.73;15.43;;;5.60;83.90;;;;;;5039686;28;20061;-59
2021/12/11 11:52:09;;;;;;;19.00;14.83;;;5.60;85.50;;;;;;5031145;28;20356;-60
2021/12/11 11:54:39;;;;;;;18.23;15.87;;;5.70;81.10;;;;;;5051480;28;20399;-60
2021/12/11 11:57:19;;;;;;;18.03;14.70;;;5.80;79.30;;;;;;5050184;28;20053;-60
2021/12/11 11:59:45;;;;;;;19.53;16.17;;;5.80;86.30;;;;;;5055179;28;20033;-60
2021/12/11 12:02:23;;;;;;;19.83;14.93;;;5.90;83.10;;;;;;5051820;28;20036;-60
2021/12/11 12:04:52;;;;;;;18.17;14.63;;;6.00;78.60;;;;;;5043867;28;20052;-60
2021/12/11 12:07:25;;;;;;;22.53;15.60;;;6.10;87.80;;;;;;5041055;28;20371;-59
2021/12/11 12:09:51;;;;;;;19.40;15.50;;;6.10;87.20;;;;;;5035905;28;20391;-60
2021/12/11 12:12:23;;;;;;;18.57;15.30;;;6.10;84.40;;;;;;5035485;28;20025;-60
2021/12/11 12:14:51;;;;;;;20.47;16.47;;;6.30;87.60;;;;;;5035568;28;20037;-59
2021/12/11 12:17:20;;;;;;;22.27;16.23;;;6.30;91.40;;;;;;5047223;28;20401;-59
2021/12/11 12:19:48;;;;;;;20.20;16.40;;;6.30;90.70;;;;;;5054758;28;20033;-59
2021/12/11 12:22:15;;;;;;;21.97;15.67;;;;;;;;;;5054480;28;20387;-59
2021/12/11 12:24:46;;;;;;;21.23;16.57;;;6.40;74.60;;;;;;5053502;28;20147;-59
2021/12/11 12:27:15;;;;;;;22.27;17.53;;;6.40;79.10;;;;;;5044873;28;20049;-59
2021/12/11 12:39:37;;;;;;;20.33;17.10;;;6.50;75.40;;;;;;5045791;28;20082;-59
2021/12/11 12:42:24;;;;;;;21.40;17.27;;;6.50;75.70;;;;;;5049564;28;20034;-59
2021/12/11 12:45:06;;;;;;;22.27;16.93;;;6.40;67.90;;;;;;5051018;28;20039;-59
2021/12/11 12:47:36;;;;;;;21.57;17.63;;;6.40;65.60;;;;;;5065358;28;20557;-59
2021/12/11 12:50:10;;;;;;;20.10;16.73;;;6.50;66.50;;;;;;5054832;28;20071;-59
2021/12/11 12:52:42;;;;;;;22.83;18.33;;;6.50;67.90;;;;;;5049756;28;20028;-59
2021/12/11 12:55:20;;;;;;;24.13;19.27;;;;;;;;;;5053241;28;20032;-59
2021/12/11 12:57:50;;;;;;;25.43;18.73;;;6.60;96.20;;;;;;5043281;28;20029;-59
2021/12/11 13:00:15;;;;;;;20.23;17.50;;;6.80;71.50;;;;;;5048867;28;20036;-60
2021/12/11 13:02:42;;;;;;;23.77;17.83;;;6.70;69.00;;;;;;5053287;28;20441;-59
2021/12/11 13:05:34;;;;;;;22.07;18.40;;;6.70;70.50;;;;;;5050627;28;20037;-59
2021/12/11 13:08:07;;;;;;;26.03;18.57;;;6.70;70.90;;;;;;5044491;28;20035;-59
2021/12/11 13:10:38;;;;;;;23.33;18.87;;;6.70;68.10;;;;;;5050766;28;20025;-59
2021/12/11 13:13:06;;;;;;;21.97;18.33;;;6.60;67.20;;;;;;5053873;28;20486;-59
2021/12/11 13:15:38;;;;;;;21.83;18.83;;;6.60;66.00;;;;;;5053113;28;20082;-59
2021/12/11 13:18:10;;;;;;;25.20;18.70;;;6.70;65.00;;;;;;5052306;28;20556;-60
2021/12/11 13:20:47;;;;;;;25.80;20.77;;;6.70;65.00;;;;;;5038906;28;20036;-60
2021/12/11 13:23:13;;;;;;;28.17;20.20;;;6.90;70.00;;;;;;5054654;28;20036;-60
2021/12/11 13:25:51;;;;;;;23.93;20.00;;;6.90;70.20;;;;;;5052857;28;20036;-60
2021/12/11 13:28:18;;;;;;;26.80;19.80;;;7.00;70.00;;;;;;5053172;28;20025;-60
2021/12/11 13:30:52;;;;;;;22.77;19.73;;;7.00;71.30;;;;;;5052087;28;20033;-60
2021/12/11 13:33:20;;;;;;;25.27;19.00;;;7.00;72.80;;;;;;5051784;28;20474;-60
2021/12/11 13:35:47;;;;;;;23.10;19.77;;;7.00;75.30;;;;;;5060307;28;20435;-60
2021/12/11 13:38:16;;;;;;;23.77;20.10;;;7.10;77.20;;;;;;5051212;28;20132;-60
2021/12/11 13:40:47;;;;;;;26.47;21.33;;;7.00;84.10;;;;;;5040865;28;20035;-59
2021/12/11 13:43:13;;;;;;;24.73;19.63;;;7.00;83.40;;;;;;5043796;28;20036;-60
2021/12/11 13:45:42;;;;;;;24.83;19.27;;;7.10;83.00;;;;;;5045864;28;20529;-60
2021/12/11 13:48:12;;;;;;;27.90;20.80;;;7.00;81.90;;;;;;5039890;28;20029;-60
2021/12/11 13:50:47;;;;;;;23.43;20.00;;;6.90;82.60;;;;;;5044526;28;20048;-60
2021/12/11 13:53:13;;;;;;;27.97;21.50;;;7.00;82.30;;;;;;5051850;28;20043;-60
2021/12/11 13:55:40;;;;;;;32.30;25.47;;;7.00;83.10;;;;;;5048414;28;20534;-59
2021/12/11 13:58:08;;;;;;;25.07;21.17;;;7.10;82.80;;;;;;5055453;28;20482;-60
2021/12/11 14:00:54;;;;;;;25.40;21.87;;;7.10;83.00;;;;;;5053013;28;20027;-60
2021/12/11 14:03:22;;;;;;;26.77;22.17;;;7.10;83.80;;;;;;5057008;28;20033;-60
2021/12/11 14:05:50;;;;;;;26.83;22.07;;;7.10;86.60;;;;;;5043712;28;20371;-60
2021/12/11 14:08:18;;;;;;;26.40;21.57;;;7.10;91.20;;;;;;5053523;28;20112;-59
2021/12/11 14:10:45;;;;;;;26.40;21.00;;;7.10;88.30;;;;;;5047352;28;20112;-59
2021/12/11 14:19:56;;;;;;;26.37;21.67;;;7.10;84.10;;;;;;5045270;28;20106;-59